You are listening to:
KLOU Del/Gnd/Twr - Louisville, Kentucky, United States

KLOU 070253Z AUTO 00000KT 10SM CLR 15/09 A3007 RMK AO2 SLP180 T01500094 52012

If stream doesn't start automatically press the play button
If stream stops then reload player then press play